Kenya Airways Virtual Airport Information Service

Nairobi Jomo Kenyatta International Airport

ICAO: HKJK Country: Kenya
Latitude: -1.31924 Longitude: 36.9278
Latest Arrival : KQA205 (VABB-HKJK) Latest Departure : KQA204 (HKJK-VABB)


WX CaptureLIVE
Data provided by noaa.gov | Recorded at 18:43:28

METAR : HKJK 181800Z 09009KT 9999 SCT030 22/09 Q1022 NOSIG

TAF : HKJK 181700Z 1818/1918 03005KT 9999 SCT020 BECMG 1908/1923 02005KT SCT020


Runway Data for HKJK
Data provided by openaviationdata.com

Runway ID Mag Var Hdg Length Elevation Surface ILS Freq ILS Id ILS Slope

Nairobi Jomo Kenyatta International Airport, Kenya
Use only for reference purposes